Time;durP1;ratioP1;P1;durP2;ratioP2;P2;SDS_P1;SDS_P2;PMS_P1;PMS_P2;Temp;Humidity;BMP_temperature;BMP_pressure;BME280_temperature;BME280_humidity;BME280_pressure;Samples;Min_cycle;Max_cycle;Signal;HPM_P1;HPM_P2
2022/03/28 00:02:17;;;;;;;14.55;5.80;;;12.10;66.40;;;;;;20669752;28;20065;-60
2022/03/28 00:12:18;;;;;;;17.83;5.50;;;12.10;66.30;;;;;;20681417;28;20050;-59
2022/03/28 00:22:20;;;;;;;17.10;6.20;;;12.10;66.30;;;;;;20678838;28;20120;-59
2022/03/28 00:32:21;;;;;;;20.80;7.43;;;12.00;66.60;;;;;;20679168;28;20158;-60
2022/03/28 00:42:23;;;;;;;20.52;7.18;;;11.90;67.10;;;;;;20677788;28;20105;-60
2022/03/28 00:52:25;;;;;;;12.48;5.60;;;11.80;67.20;;;;;;20677036;28;20053;-60
2022/03/28 01:02:27;;;;;;;13.82;6.55;;;11.80;66.90;;;;;;20677007;28;20050;-60
2022/03/28 01:12:32;;;;;;;18.70;6.47;;;11.70;67.20;;;;;;20677319;28;20050;-60
2022/03/28 01:22:34;;;;;;;13.32;6.68;;;11.60;67.40;;;;;;20675649;28;20101;-60
2022/03/28 01:32:36;;;;;;;19.02;5.90;;;11.50;67.60;;;;;;20674510;28;20042;-61
2022/03/28 01:42:40;;;;;;;16.75;6.70;;;11.50;67.80;;;;;;20674699;28;20073;-59
2022/03/28 01:52:43;;;;;;;17.45;6.75;;;11.50;68.00;;;;;;20671567;28;20093;-60
2022/03/28 02:02:47;;;;;;;26.50;6.90;;;11.30;68.70;;;;;;20672473;28;20050;-60
2022/03/28 02:12:50;;;;;;;17.73;5.97;;;11.10;69.30;;;;;;20672119;28;20109;-60
2022/03/28 02:22:52;;;;;;;15.63;5.85;;;11.00;69.70;;;;;;20670640;28;20061;-60
2022/03/28 02:32:53;;;;;;;19.70;6.22;;;10.70;70.30;;;;;;20669351;28;20506;-61
2022/03/28 02:42:58;;;;;;;16.20;5.38;;;10.50;70.90;;;;;;20668845;28;20205;-60
2022/03/28 02:53:01;;;;;;;21.08;5.85;;;10.30;71.40;;;;;;20668246;28;20074;-59
2022/03/28 03:03:02;;;;;;;18.00;5.55;;;10.10;71.80;;;;;;20667644;28;20053;-59
2022/03/28 03:13:05;;;;;;;20.85;5.93;;;10.00;72.30;;;;;;20682491;28;20544;-59
2022/03/28 03:23:10;;;;;;;22.55;5.53;;;10.00;72.30;;;;;;20666462;28;20054;-60
2022/03/28 03:33:12;;;;;;;20.05;5.85;;;9.90;72.60;;;;;;20667424;28;20100;-59
2022/03/28 03:43:14;;;;;;;20.85;5.63;;;9.90;72.70;;;;;;20679781;28;20057;-60
2022/03/28 03:53:19;;;;;;;15.68;6.25;;;9.80;73.00;;;;;;20681706;28;20054;-60
2022/03/28 04:03:21;;;;;;;16.95;6.35;;;9.70;73.20;;;;;;20681457;28;20109;-60
2022/03/28 04:13:24;;;;;;;19.48;5.90;;;9.50;73.40;;;;;;20681303;28;20050;-60
2022/03/28 04:23:26;;;;;;;16.08;6.50;;;9.50;74.00;;;;;;20679754;28;20510;-60
2022/03/28 04:33:28;;;;;;;18.73;5.97;;;9.40;74.10;;;;;;20679172;28;20155;-59
2022/03/28 04:43:31;;;;;;;14.48;5.68;;;9.30;74.20;;;;;;20678360;28;20430;-60
2022/03/28 04:53:34;;;;;;;20.13;6.10;;;9.30;74.20;;;;;;20676667;28;20050;-60
2022/03/28 05:03:36;;;;;;;19.50;6.53;;;9.30;74.40;;;;;;20677407;28;20411;-60
2022/03/28 05:13:38;;;;;;;16.30;6.13;;;9.10;74.70;;;;;;20676969;28;20081;-61
2022/03/28 05:23:40;;;;;;;22.05;6.50;;;9.10;74.80;;;;;;20674713;28;20112;-59
2022/03/28 05:33:42;;;;;;;19.25;6.75;;;9.10;74.80;;;;;;20674656;28;20069;-60
2022/03/28 05:43:43;;;;;;;23.02;7.07;;;9.10;74.90;;;;;;20673362;28;20073;-60
2022/03/28 05:53:45;;;;;;;22.48;6.97;;;9.10;74.90;;;;;;20673600;28;20051;-60
2022/03/28 06:03:47;;;;;;;22.08;6.85;;;9.00;75.00;;;;;;20672560;28;20065;-60
2022/03/28 06:13:49;;;;;;;16.65;7.00;;;9.10;74.80;;;;;;20671477;28;20461;-59
2022/03/28 06:23:50;;;;;;;21.65;7.35;;;9.20;74.40;;;;;;20670408;28;20061;-59
2022/03/28 06:33:57;;;;;;;20.90;7.55;;;9.40;73.90;;;;;;20669195;28;20054;-60
2022/03/28 06:43:59;;;;;;;21.98;7.53;;;9.60;73.40;;;;;;20668345;28;20046;-60
2022/03/28 06:54:04;;;;;;;15.35;6.60;;;9.60;73.00;;;;;;20668406;28;20133;-60
2022/03/28 07:04:05;;;;;;;12.13;6.13;;;9.50;72.80;;;;;;20667416;28;20061;-59
2022/03/28 07:14:07;;;;;;;42.13;21.55;;;9.40;72.60;;;;;;20666319;28;20058;-59
2022/03/28 07:24:09;;;;;;;21.00;7.03;;;9.50;72.50;;;;;;20666728;28;20108;-58
2022/03/28 07:34:29;;;;;;;21.33;6.20;;;9.70;72.20;;;;;;20666887;28;20050;-60
2022/03/28 07:44:31;;;;;;;14.70;5.60;;;10.10;71.70;;;;;;20666820;28;20093;-60
2022/03/28 07:54:36;;;;;;;12.48;5.80;;;10.40;70.80;;;;;;20666607;28;20416;-60
2022/03/28 08:04:37;;;;;;;18.15;5.03;;;10.60;70.20;;;;;;20665455;28;20418;-59
2022/03/28 08:14:39;;;;;;;19.50;5.38;;;10.70;68.80;;;;;;20665307;28;20082;-59
2022/03/28 08:24:41;;;;;;;15.57;5.22;;;11.00;66.80;;;;;;20669351;28;20093;-62
2022/03/28 08:34:47;;;;;;;15.95;4.78;;;11.40;65.30;;;;;;20679834;28;20070;-61
2022/03/28 08:44:48;;;;;;;21.08;4.45;;;11.40;64.60;;;;;;20679614;28;20058;-60
2022/03/28 08:54:51;;;;;;;15.18;4.43;;;11.60;63.10;;;;;;20678934;28;20081;-59
2022/03/28 09:04:56;;;;;;;15.73;4.07;;;11.50;63.10;;;;;;20675547;28;20077;-60
2022/03/28 09:15:03;;;;;;;13.38;4.40;;;11.50;62.30;;;;;;20676829;28;20046;-58
2022/03/28 09:25:08;;;;;;;13.23;4.25;;;11.90;61.40;;;;;;20676073;28;20545;-59
2022/03/28 09:35:13;;;;;;;22.85;4.13;;;12.30;59.40;;;;;;20674458;28;20054;-60
2022/03/28 09:45:22;;;;;;;16.42;3.85;;;12.70;57.50;;;;;;20673127;28;20051;-55
2022/03/28 09:55:24;;;;;;;10.43;3.85;;;13.20;58.00;;;;;;20661297;28;20047;-55
2022/03/28 10:05:27;;;;;;;12.68;3.60;;;14.70;54.30;;;;;;20667794;28;20069;-59
2022/03/28 10:15:29;;;;;;;13.00;3.53;;;14.30;53.00;;;;;;20672760;28;20109;-60
2022/03/28 10:25:31;;;;;;;17.45;4.05;;;14.10;52.80;;;;;;20672443;28;20074;-59
2022/03/28 10:35:33;;;;;;;15.60;4.40;;;14.00;52.30;;;;;;20671744;28;20050;-62
2022/03/28 10:45:49;;;;;;;19.17;4.53;;;14.10;52.10;;;;;;20670291;28;20054;-59
2022/03/28 10:55:58;;;;;;;14.05;4.30;;;14.30;51.80;;;;;;20670974;28;20129;-59
2022/03/28 11:05:59;;;;;;;15.35;5.50;;;14.50;51.60;;;;;;20668364;28;20053;-60
2022/03/28 11:16:02;;;;;;;5.75;2.90;;;14.70;51.30;;;;;;20680049;28;20486;-59
2022/03/28 11:26:05;;;;;;;17.30;4.15;;;14.90;52.40;;;;;;20662428;28;20148;-65
2022/03/28 11:36:13;;;;;;;9.52;4.43;;;15.90;51.20;;;;;;20666536;28;20523;-63
2022/03/28 11:46:25;;;;;;;14.65;4.28;;;16.30;50.10;;;;;;20665239;28;20065;-58
2022/03/28 11:56:29;;;;;;;11.23;4.43;;;16.50;49.20;;;;;;20667292;28;20121;-60
2022/03/28 12:06:34;;;;;;;16.83;4.35;;;16.70;48.60;;;;;;20681169;28;20522;-60
2022/03/28 12:16:50;;;;;;;13.05;4.45;;;16.60;48.50;;;;;;20679889;28;20402;-67
2022/03/28 12:26:54;;;;;;;11.23;4.40;;;16.60;48.70;;;;;;20680347;28;20063;-60
2022/03/28 12:36:58;;;;;;;15.07;5.03;;;16.70;48.80;;;;;;20678980;28;20051;-58
2022/03/28 12:47:06;;;;;;;23.52;5.47;;;16.30;48.20;;;;;;20678197;28;20062;-58
2022/03/28 12:57:08;;;;;;;15.27;4.80;;;16.20;48.60;;;;;;20677779;28;20057;-59
2022/03/28 13:07:16;;;;;;;17.20;4.82;;;16.70;48.10;;;;;;20677545;28;20427;-58
2022/03/28 13:17:19;;;;;;;16.63;4.03;;;16.70;48.30;;;;;;20675903;28;20057;-56
2022/03/28 13:37:59;;;;;;;18.02;5.25;;;16.90;48.70;;;;;;20674606;28;20049;-58
2022/03/28 13:48:05;;;;;;;28.38;5.57;;;16.90;49.50;;;;;;20673780;28;20090;-58
2022/03/28 13:58:09;;;;;;;17.45;5.35;;;16.90;49.90;;;;;;20673321;28;20058;-59
2022/03/28 14:08:14;;;;;;;19.50;5.32;;;;;;;;;;20673801;28;20050;-57
2022/03/28 14:18:18;;;;;;;23.88;6.00;;;17.90;49.40;;;;;;20675049;28;20046;-57
2022/03/28 14:28:20;;;;;;;20.80;5.13;;;17.80;50.00;;;;;;20672587;28;20058;-59
2022/03/28 14:38:21;;;;;;;15.63;4.90;;;18.10;49.90;;;;;;20678288;28;20135;-67
2022/03/28 14:48:26;;;;;;;16.73;4.28;;;18.20;49.80;;;;;;20671139;28;20061;-70
2022/03/28 14:58:28;;;;;;;22.67;4.40;;;18.40;49.40;;;;;;20676645;28;20104;-65
2022/03/28 15:08:30;;;;;;;17.80;5.15;;;18.50;49.60;;;;;;20672504;28;20046;-62
2022/03/28 15:18:32;;;;;;;26.30;6.22;;;18.70;49.10;;;;;;20667799;28;20046;-69
2022/03/28 15:28:39;;;;;;;25.05;5.78;;;18.70;49.40;;;;;;20665419;28;20127;-61
2022/03/28 15:38:42;;;;;;;25.57;5.60;;;18.50;49.70;;;;;;20665552;28;20096;-61
2022/03/28 15:48:45;;;;;;;29.08;6.03;;;18.70;49.80;;;;;;20666431;28;20058;-59
2022/03/28 15:58:47;;;;;;;21.88;5.57;;;18.90;49.70;;;;;;20666463;28;20046;-64
2022/03/28 16:08:49;;;;;;;28.42;6.05;;;18.70;50.20;;;;;;20666103;28;20050;-59
2022/03/28 16:18:51;;;;;;;31.80;5.95;;;18.50;50.80;;;;;;20666468;28;20192;-63
2022/03/28 16:28:56;;;;;;;28.30;6.85;;;18.20;51.20;;;;;;20665793;28;20569;-62
2022/03/28 16:38:58;;;;;;;24.80;5.90;;;18.40;50.90;;;;;;20666407;28;20061;-60
2022/03/28 16:49:00;;;;;;;38.72;7.07;;;18.60;50.40;;;;;;20678081;28;20061;-60
2022/03/28 16:59:03;;;;;;;32.53;6.65;;;18.40;50.70;;;;;;20677565;28;20383;-59
2022/03/28 17:09:05;;;;;;;31.05;6.65;;;18.30;51.20;;;;;;20694187;28;20058;-57
2022/03/28 17:19:07;;;;;;;26.05;6.30;;;18.10;50.90;;;;;;20675932;28;20050;-56
2022/03/28 17:29:11;;;;;;;28.30;5.68;;;17.90;51.70;;;;;;20675615;28;20122;-58
2022/03/28 17:39:13;;;;;;;32.08;6.25;;;17.70;52.20;;;;;;20674406;28;20046;-56
2022/03/28 17:49:16;;;;;;;31.70;6.72;;;17.60;52.80;;;;;;20673917;28;20054;-56
2022/03/28 17:59:17;;;;;;;33.33;7.57;;;17.40;53.30;;;;;;20672849;28;20053;-57
2022/03/28 18:09:19;;;;;;;27.95;7.28;;;17.20;53.90;;;;;;20671759;28;20153;-56
2022/03/28 18:19:22;;;;;;;34.50;6.85;;;17.20;54.50;;;;;;20671053;28;20050;-57
2022/03/28 18:29:24;;;;;;;34.65;7.80;;;17.00;55.50;;;;;;20669786;28;20495;-57
2022/03/28 18:39:26;;;;;;;40.33;8.77;;;16.70;56.40;;;;;;20670259;28;20069;-56
2022/03/28 18:49:27;;;;;;;41.97;9.05;;;16.60;57.30;;;;;;20668958;28;20108;-57
2022/03/28 18:59:29;;;;;;;39.15;8.25;;;16.30;58.10;;;;;;20668601;28;20057;-57
2022/03/28 19:09:31;;;;;;;28.67;7.32;;;16.20;58.80;;;;;;20667078;28;20494;-56
2022/03/28 19:19:32;;;;;;;37.03;8.02;;;16.00;59.50;;;;;;20667841;28;20050;-57
2022/03/28 19:29:34;;;;;;;44.72;8.55;;;15.80;60.10;;;;;;20666265;28;20085;-56
2022/03/28 19:39:36;;;;;;;39.63;8.27;;;15.70;60.80;;;;;;20666396;28;20047;-56
2022/03/28 19:49:38;;;;;;;44.40;8.55;;;15.50;61.00;;;;;;20667258;28;20058;-56
2022/03/28 19:59:42;;;;;;;36.35;7.75;;;15.50;61.10;;;;;;20667107;28;20057;-56
2022/03/28 20:09:43;;;;;;;44.28;8.95;;;15.40;61.30;;;;;;20666024;28;20086;-56
2022/03/28 20:19:45;;;;;;;47.85;9.65;;;15.30;61.50;;;;;;20685436;28;20106;-56
2022/03/28 20:29:52;;;;;;;42.72;9.10;;;15.10;61.90;;;;;;20682351;28;20061;-57
2022/03/28 20:39:55;;;;;;;36.65;7.72;;;15.00;62.30;;;;;;20680593;28;20053;-57
2022/03/28 20:49:57;;;;;;;43.08;8.63;;;14.90;62.50;;;;;;20680874;28;20065;-56
2022/03/28 20:59:59;;;;;;;42.95;7.15;;;14.70;62.90;;;;;;20678495;28;20422;-57
2022/03/28 21:10:01;;;;;;;41.78;7.78;;;14.40;63.20;;;;;;20677620;28;20057;-57
2022/03/28 21:20:03;;;;;;;36.75;8.18;;;14.50;63.00;;;;;;20676418;28;20050;-56
2022/03/28 21:30:10;;;;;;;43.13;8.63;;;14.50;62.90;;;;;;20675044;28;20058;-58
2022/03/28 21:40:12;;;;;;;34.55;9.00;;;14.60;63.00;;;;;;20674620;28;20046;-57
2022/03/28 21:50:16;;;;;;;30.35;8.40;;;14.50;63.20;;;;;;20674861;28;20046;-57
2022/03/28 22:00:22;;;;;;;39.85;8.20;;;14.40;63.80;;;;;;20673790;28;20061;-57
2022/03/28 22:10:23;;;;;;;39.00;8.73;;;14.30;64.90;;;;;;20673258;28;20081;-57
2022/03/28 22:20:27;;;;;;;35.20;8.98;;;14.20;65.10;;;;;;20674423;28;20056;-57
2022/03/28 22:30:29;;;;;;;37.30;9.40;;;14.00;66.00;;;;;;20671111;28;20066;-57
2022/03/28 22:40:31;;;;;;;34.38;8.05;;;14.00;66.10;;;;;;20671758;28;20074;-56
2022/03/28 22:50:33;;;;;;;38.88;8.43;;;13.90;66.40;;;;;;20670943;28;20399;-55
2022/03/28 23:00:35;;;;;;;32.42;8.07;;;13.80;66.70;;;;;;20669318;28;20046;-56
2022/03/28 23:10:36;;;;;;;38.75;8.27;;;13.80;66.90;;;;;;20668540;28;20483;-56
2022/03/28 23:20:38;;;;;;;36.00;7.75;;;13.70;67.20;;;;;;20667685;28;20204;-56
2022/03/28 23:30:40;;;;;;;44.55;8.82;;;13.70;67.40;;;;;;20666819;28;20054;-56
2022/03/28 23:40:41;;;;;;;42.47;9.25;;;13.60;67.80;;;;;;20666631;28;20487;-57
2022/03/28 23:50:44;;;;;;;39.60;8.02;;;13.50;68.00;;;;;;20666472;28;20097;-56
